Prevelis — SYDL — position and weather

sailwx.info

Track history (hours):
 
Tides and Currents Weather Stations Pressure Air Temp Water Temp Dewpoint Dewpoint Depression Visibility Wind Speed Wind Dir Waves Ship Positions

Prevelis

Last reported at 2014-Dec-19 02:33 UTC. Time now 2014-Dec-19 03:13 UTC.
Position N 37°41' E 023°46'.

Length 143 m; draft 5.5 m.

Type: Passenger vessel. MMSI: 239297000.

Date/timePositionNaut miles runAvg speedWind from/ knotsBaromVisibWave heightAir tempDewpointWater temp
2014-Dec-19 02:33N 37°41' E 023°46'5217.3
2014-Dec-18 23:33N 36°54' E 024°16'1414.1
2014-Dec-18 22:33N 36°43' E 024°27'9 6.8
2014-Dec-18 21:13N 36°43' E 024°38'1517.2
2014-Dec-18 20:19N 36°35' E 024°54'1317.0
2014-Dec-18 19:33N 36°28' E 025°08'1514.9
2014-Dec-18 18:33N 36°23' E 025°26'3 2.8
2014-Dec-18 17:33N 36°23' E 025°22'1313.2
2014-Dec-18 16:33N 36°20' E 025°38'7 7.0
2014-Dec-18 15:33N 36°18' E 025°47'1717.2
2014-Dec-18 14:33N 36°06' E 026°02'1817.7
2014-Dec-18 13:33N 35°54' E 026°18'21 0.7
2014-Dec-17 08:31N 36°08' E 025°58'1515.8
2014-Dec-17 07:33N 36°20' E 025°46'1211.9
2014-Dec-17 06:33N 36°19' E 025°31'6 5.9
2014-Dec-17 05:33N 36°23' E 025°26'1 1.3
2014-Dec-17 04:33N 36°23' E 025°24'1616.3
2014-Dec-17 03:33N 36°29' E 025°06'5111.9
2014-Dec-16 23:18N 36°59' E 024°14'1216.3
2014-Dec-16 22:33N 37°09' E 024°06'3316.3
2014-Dec-16 20:33N 37°37' E 023°45'1616.2
2014-Dec-16 19:33N 37°52' E 023°37'5 5.3
2014-Dec-16 18:33N 37°57' E 023°38'0 0.0
2014-Dec-16 17:33N 37°57' E 023°38'0 0.0
2014-Dec-16 16:34N 37°57' E 023°38'0 0.0
2014-Dec-16 15:34N 37°57' E 023°38'0 0.0
2014-Dec-16 14:33N 37°57' E 023°38'0 0.0
2014-Dec-16 13:33N 37°57' E 023°38'0 0.3
2014-Dec-16 12:33N 37°57' E 023°38'0 0.1
2014-Dec-16 11:34N 37°57' E 023°38'0 0.0
2014-Dec-16 10:34N 37°57' E 023°38'0 0.0
2014-Dec-16 09:34N 37°57' E 023°38'0 0.0
2014-Dec-16 08:34N 37°57' E 023°38'0 0.0
2014-Dec-16 07:34N 37°57' E 023°38'0 0.0
2014-Dec-16 06:34N 37°57' E 023°38'0 0.0
2014-Dec-16 05:34N 37°57' E 023°38'0 0.0
2014-Dec-16 04:32N 37°57' E 023°38'0 0.0
2014-Dec-16 03:33N 37°57' E 023°38'0 0.0
2014-Dec-16 02:33N 37°57' E 023°38'0 0.0
2014-Dec-16 01:32N 37°57' E 023°38'0 0.0
2014-Dec-16 00:31N 37°57' E 023°38'0 0.0
2014-Dec-15 23:34N 37°57' E 023°38'0 0.0
2014-Dec-15 22:34N 37°57' E 023°38'0 0.0
2014-Dec-15 21:33N 37°57' E 023°38'0 0.0
2014-Dec-15 20:34N 37°57' E 023°38'0 0.0
2014-Dec-15 19:34N 37°57' E 023°38'0 0.0
2014-Dec-15 18:34N 37°57' E 023°38'0 0.0
2014-Dec-15 17:34N 37°57' E 023°38'0 0.0
2014-Dec-15 16:33N 37°57' E 023°38'0 0.0
2014-Dec-15 15:34N 37°57' E 023°38'0 0.0
2014-Dec-15 14:33N 37°57' E 023°38'0 0.0
2014-Dec-15 13:34N 37°57' E 023°38'0 0.0
2014-Dec-15 12:33N 37°57' E 023°38'0 0.0
2014-Dec-15 11:34N 37°57' E 023°38'0 0.0
2014-Dec-15 10:34N 37°57' E 023°38'0 0.0
2014-Dec-15 09:34N 37°57' E 023°38'0 0.0
2014-Dec-15 08:34N 37°57' E 023°38'1110.9
2014-Dec-15 07:34N 37°46' E 023°42'1817.7
2014-Dec-15 06:33N 37°30' E 023°52'2018.0
2014-Dec-15 05:26N 37°12' E 024°04'1517.7
2014-Dec-15 04:33N 36°59' E 024°14'1817.6
2014-Dec-15 03:31N 36°43' E 024°25'6 5.5
2014-Dec-15 02:32N 36°47' E 024°31'1717.3
2014-Dec-15 01:34N 36°38' E 024°48'1817.5
2014-Dec-15 00:33N 36°28' E 025°07'1615.6
2014-Dec-14 23:34N 36°23' E 025°25'1 0.9
2014-Dec-14 22:33N 36°23' E 025°24'1110.6
2014-Dec-14 21:33N 36°19' E 025°36'7 6.8
2014-Dec-14 20:33N 36°16' E 025°43'1717.0
2014-Dec-14 19:33N 36°00' E 025°35'1717.0
2014-Dec-14 18:33N 35°45' E 025°26'2317.3
2014-Dec-14 17:12N 35°24' E 025°14'3 1.9
2014-Dec-14 15:31N 35°21' E 025°16'24 0.7
2014-Dec-13 07:31N 35°45' E 025°25'1717.8
2014-Dec-13 06:33N 36°00' E 025°32'1817.7
2014-Dec-13 05:34N 36°16' E 025°41'4 4.3
2014-Dec-13 04:33N 36°20' E 025°38'1414.5
2014-Dec-13 03:33N 36°22' E 025°20'5 4.6
2014-Dec-13 02:34N 36°23' E 025°26'7 7.0
2014-Dec-13 01:33N 36°24' E 025°17'1616.0
2014-Dec-13 00:33N 36°36' E 025°03'1414.4
2014-Dec-12 23:34N 36°42' E 024°48'1514.7
2014-Dec-12 22:33N 36°48' E 024°30'5 5.4
2014-Dec-12 21:33N 36°43' E 024°27'1010.4
2014-Dec-12 20:33N 36°52' E 024°20'1717.1
2014-Dec-12 19:33N 37°07' E 024°08'3617.0
2014-Dec-12 17:27N 37°36' E 023°44'1517.2
2014-Dec-12 16:33N 37°51' E 023°37'6 6.1
2014-Dec-12 15:33N 37°57' E 023°38'0 0.0
2014-Dec-12 14:33N 37°57' E 023°38'0 0.0
2014-Dec-12 13:33N 37°57' E 023°38'0 0.0
2014-Dec-12 12:33N 37°57' E 023°38'0 0.0
2014-Dec-12 11:33N 37°57' E 023°38'0 0.0
2014-Dec-12 10:34N 37°57' E 023°38'0 0.0
2014-Dec-12 09:34N 37°57' E 023°38'0 0.0
2014-Dec-12 08:33N 37°57' E 023°38'0 0.0
2014-Dec-12 07:33N 37°57' E 023°38'0 0.0
2014-Dec-12 06:33N 37°57' E 023°38'0 0.0
2014-Dec-12 05:33N 37°57' E 023°38'0 0.0
2014-Dec-12 04:34N 37°57' E 023°38'2 2.0
2014-Dec-12 03:33N 37°55' E 023°37'1717.0
2014-Dec-12 02:33N 37°40' E 023°46'2416.7
2014-Dec-12 01:08N 37°19' E 023°60'2616.3
2014-Dec-11 23:33N 36°56' E 024°15'1615.6
2014-Dec-11 22:33N 36°43' E 024°26'5 5.3
2014-Dec-11 21:33N 36°46' E 024°31'1616.1
2014-Dec-11 20:33N 36°38' E 024°48'1717.4
2014-Dec-11 19:33N 36°29' E 025°06'1616.1
2014-Dec-11 18:33N 36°23' E 025°25'4 4.4
2014-Dec-11 17:34N 36°22' E 025°20'1313.0
2014-Dec-11 16:33N 36°18' E 025°36'7 6.7
2014-Dec-11 15:34N 36°17' E 025°44'1818.1
2014-Dec-11 14:33N 36°06' E 026°02'8 0.2
2014-Dec-10 07:33N 36°11' E 025°55'1313.1
2014-Dec-10 06:33N 36°21' E 025°44'1716.9
2014-Dec-10 05:33N 36°20' E 025°23'4 4.2
2014-Dec-10 04:33N 36°23' E 025°26'9 9.1
2014-Dec-10 03:33N 36°25' E 025°15'1717.4
2014-Dec-10 02:33N 36°33' E 024°56'1817.6
2014-Dec-10 01:33N 36°43' E 024°37'9 8.8
2014-Dec-10 00:33N 36°43' E 024°26'1010.5
2014-Dec-09 23:33N 36°52' E 024°19'1717.4
2014-Dec-09 22:33N 37°07' E 024°08'3717.4
2014-Dec-09 20:25N 37°39' E 023°44'1517.2
2014-Dec-09 19:33N 37°52' E 023°37'5 4.7
2014-Dec-09 18:33N 37°57' E 023°38'0 0.0
2014-Dec-09 17:33N 37°57' E 023°38'0 0.0
2014-Dec-09 16:33N 37°57' E 023°38'0 0.0
2014-Dec-09 15:33N 37°57' E 023°38'0 0.0
2014-Dec-09 14:33N 37°57' E 023°38'0 0.0
2014-Dec-09 13:33N 37°57' E 023°38'0 0.0
2014-Dec-09 12:34N 37°57' E 023°38'0 0.0
2014-Dec-09 11:33N 37°57' E 023°38'0 0.0
2014-Dec-09 10:33N 37°57' E 023°38'0 0.0
2014-Dec-09 09:34N 37°57' E 023°38'0 0.0
2014-Dec-09 08:33N 37°57' E 023°38'0 0.0
2014-Dec-09 07:33N 37°57' E 023°38'0 0.0
2014-Dec-09 06:33N 37°57' E 023°38'0 0.0
2014-Dec-09 05:33N 37°57' E 023°38'0 0.0
2014-Dec-09 04:33N 37°57' E 023°38'0 0.0
2014-Dec-09 03:33N 37°57' E 023°38'0 0.0
2014-Dec-09 02:33N 37°57' E 023°38'  
Track history (hours):
 
Tides and Currents Weather Stations Pressure Air Temp Water Temp Dewpoint Dewpoint Depression Visibility Wind Speed Wind Dir Waves Ship Positions

Prevelis

Last reported at 2014-Dec-19 02:33 UTC. Time now 2014-Dec-19 03:13 UTC.
Position N 37°41' E 023°46'.

Length 143 m; draft 5.5 m.

Type: Passenger vessel. MMSI: 239297000.

Date/timePositionNaut miles runAvg speedWind from/ knotsBaromVisibWave heightAir tempDewpointWater temp
2014-Dec-19 02:33N 37°41' E 023°46'5217.3
2014-Dec-18 23:33N 36°54' E 024°16'1414.1
2014-Dec-18 22:33N 36°43' E 024°27'9 6.8
2014-Dec-18 21:13N 36°43' E 024°38'1517.2
2014-Dec-18 20:19N 36°35' E 024°54'1317.0
2014-Dec-18 19:33N 36°28' E 025°08'1514.9
2014-Dec-18 18:33N 36°23' E 025°26'3 2.8
2014-Dec-18 17:33N 36°23' E 025°22'1313.2
2014-Dec-18 16:33N 36°20' E 025°38'7 7.0
2014-Dec-18 15:33N 36°18' E 025°47'1717.2
2014-Dec-18 14:33N 36°06' E 026°02'1817.7
2014-Dec-18 13:33N 35°54' E 026°18'21 0.7
2014-Dec-17 08:31N 36°08' E 025°58'1515.8
2014-Dec-17 07:33N 36°20' E 025°46'1211.9
2014-Dec-17 06:33N 36°19' E 025°31'6 5.9
2014-Dec-17 05:33N 36°23' E 025°26'1 1.3
2014-Dec-17 04:33N 36°23' E 025°24'1616.3
2014-Dec-17 03:33N 36°29' E 025°06'5111.9
2014-Dec-16 23:18N 36°59' E 024°14'1216.3
2014-Dec-16 22:33N 37°09' E 024°06'3316.3
2014-Dec-16 20:33N 37°37' E 023°45'1616.2
2014-Dec-16 19:33N 37°52' E 023°37'5 5.3
2014-Dec-16 18:33N 37°57' E 023°38'0 0.0
2014-Dec-16 17:33N 37°57' E 023°38'0 0.0
2014-Dec-16 16:34N 37°57' E 023°38'0 0.0
2014-Dec-16 15:34N 37°57' E 023°38'0 0.0
2014-Dec-16 14:33N 37°57' E 023°38'0 0.0
2014-Dec-16 13:33N 37°57' E 023°38'0 0.3
2014-Dec-16 12:33N 37°57' E 023°38'0 0.1
2014-Dec-16 11:34N 37°57' E 023°38'0 0.0
2014-Dec-16 10:34N 37°57' E 023°38'0 0.0
2014-Dec-16 09:34N 37°57' E 023°38'0 0.0
2014-Dec-16 08:34N 37°57' E 023°38'0 0.0
2014-Dec-16 07:34N 37°57' E 023°38'0 0.0
2014-Dec-16 06:34N 37°57' E 023°38'0 0.0
2014-Dec-16 05:34N 37°57' E 023°38'0 0.0
2014-Dec-16 04:32N 37°57' E 023°38'0 0.0
2014-Dec-16 03:33N 37°57' E 023°38'0 0.0
2014-Dec-16 02:33N 37°57' E 023°38'0 0.0
2014-Dec-16 01:32N 37°57' E 023°38'0 0.0
2014-Dec-16 00:31N 37°57' E 023°38'0 0.0
2014-Dec-15 23:34N 37°57' E 023°38'0 0.0
2014-Dec-15 22:34N 37°57' E 023°38'0 0.0
2014-Dec-15 21:33N 37°57' E 023°38'0 0.0
2014-Dec-15 20:34N 37°57' E 023°38'0 0.0
2014-Dec-15 19:34N 37°57' E 023°38'0 0.0
2014-Dec-15 18:34N 37°57' E 023°38'0 0.0
2014-Dec-15 17:34N 37°57' E 023°38'0 0.0
2014-Dec-15 16:33N 37°57' E 023°38'0 0.0
2014-Dec-15 15:34N 37°57' E 023°38'0 0.0
2014-Dec-15 14:33N 37°57' E 023°38'0 0.0
2014-Dec-15 13:34N 37°57' E 023°38'0 0.0
2014-Dec-15 12:33N 37°57' E 023°38'0 0.0
2014-Dec-15 11:34N 37°57' E 023°38'0 0.0
2014-Dec-15 10:34N 37°57' E 023°38'0 0.0
2014-Dec-15 09:34N 37°57' E 023°38'0 0.0
2014-Dec-15 08:34N 37°57' E 023°38'1110.9
2014-Dec-15 07:34N 37°46' E 023°42'1817.7
2014-Dec-15 06:33N 37°30' E 023°52'2018.0
2014-Dec-15 05:26N 37°12' E 024°04'1517.7
2014-Dec-15 04:33N 36°59' E 024°14'1817.6
2014-Dec-15 03:31N 36°43' E 024°25'6 5.5
2014-Dec-15 02:32N 36°47' E 024°31'1717.3
2014-Dec-15 01:34N 36°38' E 024°48'1817.5
2014-Dec-15 00:33N 36°28' E 025°07'1615.6
2014-Dec-14 23:34N 36°23' E 025°25'1 0.9
2014-Dec-14 22:33N 36°23' E 025°24'1110.6
2014-Dec-14 21:33N 36°19' E 025°36'7 6.8
2014-Dec-14 20:33N 36°16' E 025°43'1717.0
2014-Dec-14 19:33N 36°00' E 025°35'1717.0
2014-Dec-14 18:33N 35°45' E 025°26'2317.3
2014-Dec-14 17:12N 35°24' E 025°14'3 1.9
2014-Dec-14 15:31N 35°21' E 025°16'24 0.7
2014-Dec-13 07:31N 35°45' E 025°25'1717.8
2014-Dec-13 06:33N 36°00' E 025°32'1817.7
2014-Dec-13 05:34N 36°16' E 025°41'4 4.3
2014-Dec-13 04:33N 36°20' E 025°38'1414.5
2014-Dec-13 03:33N 36°22' E 025°20'5 4.6
2014-Dec-13 02:34N 36°23' E 025°26'7 7.0
2014-Dec-13 01:33N 36°24' E 025°17'1616.0
2014-Dec-13 00:33N 36°36' E 025°03'1414.4
2014-Dec-12 23:34N 36°42' E 024°48'1514.7
2014-Dec-12 22:33N 36°48' E 024°30'5 5.4
2014-Dec-12 21:33N 36°43' E 024°27'1010.4
2014-Dec-12 20:33N 36°52' E 024°20'1717.1
2014-Dec-12 19:33N 37°07' E 024°08'3617.0
2014-Dec-12 17:27N 37°36' E 023°44'1517.2
2014-Dec-12 16:33N 37°51' E 023°37'6 6.1
2014-Dec-12 15:33N 37°57' E 023°38'0 0.0
2014-Dec-12 14:33N 37°57' E 023°38'0 0.0
2014-Dec-12 13:33N 37°57' E 023°38'0 0.0
2014-Dec-12 12:33N 37°57' E 023°38'0 0.0
2014-Dec-12 11:33N 37°57' E 023°38'0 0.0
2014-Dec-12 10:34N 37°57' E 023°38'0 0.0
2014-Dec-12 09:34N 37°57' E 023°38'0 0.0
2014-Dec-12 08:33N 37°57' E 023°38'0 0.0
2014-Dec-12 07:33N 37°57' E 023°38'0 0.0
2014-Dec-12 06:33N 37°57' E 023°38'0 0.0
2014-Dec-12 05:33N 37°57' E 023°38'0 0.0
2014-Dec-12 04:34N 37°57' E 023°38'2 2.0
2014-Dec-12 03:33N 37°55' E 023°37'1717.0
2014-Dec-12 02:33N 37°40' E 023°46'2416.7
2014-Dec-12 01:08N 37°19' E 023°60'2616.3
2014-Dec-11 23:33N 36°56' E 024°15'1615.6
2014-Dec-11 22:33N 36°43' E 024°26'5 5.3
2014-Dec-11 21:33N 36°46' E 024°31'1616.1
2014-Dec-11 20:33N 36°38' E 024°48'1717.4
2014-Dec-11 19:33N 36°29' E 025°06'1616.1
2014-Dec-11 18:33N 36°23' E 025°25'4 4.4
2014-Dec-11 17:34N 36°22' E 025°20'1313.0
2014-Dec-11 16:33N 36°18' E 025°36'7 6.7
2014-Dec-11 15:34N 36°17' E 025°44'1818.1
2014-Dec-11 14:33N 36°06' E 026°02'8 0.2
2014-Dec-10 07:33N 36°11' E 025°55'1313.1
2014-Dec-10 06:33N 36°21' E 025°44'1716.9
2014-Dec-10 05:33N 36°20' E 025°23'4 4.2
2014-Dec-10 04:33N 36°23' E 025°26'9 9.1
2014-Dec-10 03:33N 36°25' E 025°15'1717.4
2014-Dec-10 02:33N 36°33' E 024°56'1817.6
2014-Dec-10 01:33N 36°43' E 024°37'9 8.8
2014-Dec-10 00:33N 36°43' E 024°26'1010.5
2014-Dec-09 23:33N 36°52' E 024°19'1717.4
2014-Dec-09 22:33N 37°07' E 024°08'3717.4
2014-Dec-09 20:25N 37°39' E 023°44'1517.2
2014-Dec-09 19:33N 37°52' E 023°37'5 4.7
2014-Dec-09 18:33N 37°57' E 023°38'0 0.0
2014-Dec-09 17:33N 37°57' E 023°38'0 0.0
2014-Dec-09 16:33N 37°57' E 023°38'0 0.0
2014-Dec-09 15:33N 37°57' E 023°38'0 0.0
2014-Dec-09 14:33N 37°57' E 023°38'0 0.0
2014-Dec-09 13:33N 37°57' E 023°38'0 0.0
2014-Dec-09 12:34N 37°57' E 023°38'0 0.0
2014-Dec-09 11:33N 37°57' E 023°38'0 0.0
2014-Dec-09 10:33N 37°57' E 023°38'0 0.0
2014-Dec-09 09:34N 37°57' E 023°38'0 0.0
2014-Dec-09 08:33N 37°57' E 023°38'0 0.0
2014-Dec-09 07:33N 37°57' E 023°38'0 0.0
2014-Dec-09 06:33N 37°57' E 023°38'0 0.0
2014-Dec-09 05:33N 37°57' E 023°38'0 0.0
2014-Dec-09 04:33N 37°57' E 023°38'0 0.0
2014-Dec-09 03:33N 37°57' E 023°38'0 0.0
2014-Dec-09 02:33N 37°57' E 023°38'  

Dump ship's entire track history